createdAt,value
2022-09-20T00:03:20.185Z,9.74
2022-09-20T00:08:20.902Z,9.69
2022-09-20T00:13:21.617Z,9.66
2022-09-20T00:18:22.347Z,9.61
2022-09-20T00:23:23.048Z,9.58
2022-09-20T00:28:23.843Z,9.53
2022-09-20T00:33:24.585Z,9.51
2022-09-20T00:38:25.305Z,9.50
2022-09-20T00:43:26.069Z,9.48
2022-09-20T00:48:26.786Z,9.42
2022-09-20T00:53:27.505Z,9.39
2022-09-20T00:58:28.340Z,9.35
2022-09-20T01:03:29.106Z,9.35
2022-09-20T01:08:29.816Z,9.31
2022-09-20T01:13:30.549Z,9.29
2022-09-20T01:18:31.289Z,9.29
2022-09-20T01:23:32.009Z,9.32
2022-09-20T01:28:32.774Z,9.32
2022-09-20T01:33:33.496Z,9.33
2022-09-20T01:38:34.219Z,9.31
2022-09-20T01:43:34.981Z,9.31
2022-09-20T01:48:35.708Z,9.26
2022-09-20T01:53:36.420Z,9.23
2022-09-20T01:58:37.187Z,9.20
2022-09-20T02:03:37.931Z,9.18
2022-09-20T02:08:38.633Z,9.18
2022-09-20T02:13:39.379Z,9.17
2022-09-20T02:18:40.126Z,9.18
2022-09-20T02:23:40.830Z,9.11
2022-09-20T02:28:41.585Z,9.11
2022-09-20T02:33:42.300Z,9.13
2022-09-20T02:38:43.051Z,9.15
2022-09-20T02:43:43.791Z,9.23
2022-09-20T02:48:44.510Z,9.26
2022-09-20T02:53:45.272Z,9.24
2022-09-20T02:58:46.079Z,9.28
2022-09-20T03:03:46.729Z,9.24
2022-09-20T03:08:47.472Z,9.31
2022-09-20T03:13:48.194Z,9.29
2022-09-20T03:18:48.944Z,9.29
2022-09-20T03:23:49.690Z,9.31
2022-09-20T03:28:50.390Z,9.29
2022-09-20T03:33:51.152Z,9.32
2022-09-20T03:38:51.905Z,9.36
2022-09-20T03:43:52.609Z,9.43
2022-09-20T03:48:53.375Z,9.48
2022-09-20T03:53:54.123Z,9.50
2022-09-20T03:58:54.829Z,9.56
2022-09-20T04:03:55.589Z,9.54
2022-09-20T04:09:03.366Z,9.56
2022-09-20T04:13:57.286Z,9.58
2022-09-20T04:18:58.200Z,9.61
2022-09-20T04:23:58.980Z,9.61
2022-09-20T04:28:59.662Z,9.64
2022-09-20T04:34:00.437Z,9.64
2022-09-20T04:39:01.487Z,9.65
2022-09-20T04:44:01.654Z,9.66
2022-09-20T04:49:02.356Z,9.66
2022-09-20T04:54:03.027Z,9.65
2022-09-20T04:59:03.743Z,10.34
2022-09-20T05:04:04.436Z,10.56
2022-09-20T05:09:05.175Z,10.30
2022-09-20T05:14:05.883Z,10.02
2022-09-20T05:19:06.627Z,9.91
2022-09-20T05:24:09.469Z,9.90
2022-09-20T05:29:08.288Z,9.99
2022-09-20T05:34:09.007Z,10.05
2022-09-20T05:39:09.748Z,10.17
2022-09-20T05:44:10.524Z,10.20
2022-09-20T05:49:11.305Z,10.27
2022-09-20T05:54:11.978Z,10.40
2022-09-20T05:59:12.924Z,10.47
2022-09-20T06:04:13.254Z,10.56
2022-09-20T06:09:13.928Z,10.60
2022-09-20T06:14:14.620Z,10.59
2022-09-20T06:19:15.283Z,10.63
2022-09-20T06:24:15.981Z,10.61
2022-09-20T06:29:16.658Z,10.59
2022-09-20T06:34:17.316Z,10.63
2022-09-20T06:39:18.005Z,10.63
2022-09-20T06:44:18.662Z,10.66
2022-09-20T06:49:19.375Z,10.76
2022-09-20T06:54:20.049Z,10.78
2022-09-20T06:59:20.768Z,10.73
2022-09-20T07:04:21.418Z,10.74
2022-09-20T07:09:22.108Z,10.59
2022-09-20T07:14:22.776Z,10.45
2022-09-20T07:19:23.518Z,10.51
2022-09-20T07:24:24.139Z,10.74
2022-09-20T07:29:24.820Z,10.81
2022-09-20T07:34:25.488Z,11.00
2022-09-20T07:39:26.176Z,11.10
2022-09-20T07:44:26.864Z,11.33
2022-09-20T07:49:27.526Z,11.40
2022-09-20T07:54:28.211Z,11.57
2022-09-20T07:59:28.872Z,11.72
2022-09-20T08:04:29.537Z,11.86
2022-09-20T08:09:30.226Z,11.98
2022-09-20T08:14:30.930Z,12.02
2022-09-20T08:19:31.648Z,12.24
2022-09-20T08:24:32.325Z,12.49
2022-09-20T08:29:32.992Z,12.47
2022-09-20T08:34:33.676Z,12.72
2022-09-20T08:44:36.003Z,13.05
2022-09-20T08:49:35.685Z,13.15
2022-09-20T08:54:36.327Z,13.15
2022-09-20T08:59:37.016Z,13.39
2022-09-20T09:04:37.694Z,13.38
2022-09-20T09:09:38.338Z,13.45
2022-09-20T09:14:39.105Z,13.69
2022-09-20T09:19:39.812Z,13.99
2022-09-20T09:24:40.462Z,14.07
2022-09-20T09:29:41.156Z,14.32
2022-09-20T09:34:41.885Z,14.15
2022-09-20T09:39:42.511Z,14.28
2022-09-20T09:44:43.242Z,14.64
2022-09-20T09:49:43.943Z,14.77
2022-09-20T09:54:44.584Z,14.94
2022-09-20T09:59:45.272Z,15.28
2022-09-20T10:04:45.958Z,15.60
2022-09-20T10:09:53.596Z,15.67
2022-09-20T10:14:47.415Z,15.76
2022-09-20T10:19:49.064Z,15.68
2022-09-20T10:24:51.474Z,15.87
2022-09-20T10:29:49.493Z,16.23
2022-09-20T10:34:50.325Z,15.75
2022-09-20T10:39:50.980Z,15.53
2022-09-20T10:44:51.707Z,14.77
2022-09-20T10:49:52.486Z,14.32
2022-09-20T10:54:53.195Z,14.32
2022-09-20T10:59:53.822Z,14.39
2022-09-20T11:04:58.023Z,14.22
2022-09-20T11:09:55.364Z,12.74
2022-09-20T11:14:56.144Z,12.13
2022-09-20T11:19:56.912Z,12.09
2022-09-20T11:24:57.774Z,12.09
2022-09-20T11:29:58.612Z,12.14
2022-09-20T11:34:59.448Z,12.23
2022-09-20T11:40:00.395Z,12.34
2022-09-20T11:45:00.670Z,12.50
2022-09-20T11:50:01.559Z,12.68
2022-09-20T11:55:02.575Z,12.96
2022-09-20T12:00:03.371Z,13.08
2022-09-20T12:05:03.708Z,13.48
2022-09-20T12:16:01.423Z,14.32
2022-09-20T12:21:01.941Z,14.40
2022-09-20T12:26:09.594Z,14.78
2022-09-20T12:31:04.061Z,14.73
2022-09-20T12:36:03.731Z,15.01
2022-09-20T12:41:04.482Z,14.94
2022-09-20T12:46:09.883Z,14.51
2022-09-20T12:51:06.729Z,14.37
2022-09-20T12:56:06.388Z,14.15
2022-09-20T13:01:11.914Z,14.22
2022-09-20T13:06:08.592Z,13.91
2022-09-20T13:11:08.215Z,13.63
2022-09-20T13:16:08.932Z,13.69
2022-09-20T13:21:09.615Z,14.03
2022-09-20T13:26:10.250Z,14.10
2022-09-20T13:31:11.014Z,14.06
2022-09-20T13:36:11.732Z,13.91
2022-09-20T13:41:12.449Z,13.67
2022-09-20T13:46:13.260Z,13.70
2022-09-20T13:51:13.901Z,13.95
2022-09-20T13:56:14.532Z,14.27
2022-09-20T14:01:15.250Z,14.54
2022-09-20T14:06:15.868Z,14.86
2022-09-20T14:11:16.529Z,14.84
2022-09-20T14:16:17.171Z,14.77
2022-09-20T14:21:17.835Z,14.70
2022-09-20T14:26:18.508Z,14.96
2022-09-20T14:31:19.411Z,14.94
2022-09-20T14:36:20.020Z,14.98
2022-09-20T14:41:20.711Z,14.98
2022-09-20T14:46:21.416Z,14.73
2022-09-20T14:51:22.062Z,14.55
2022-09-20T14:56:22.741Z,14.33
2022-09-20T15:01:23.376Z,14.14
2022-09-20T15:06:24.056Z,14.10
2022-09-20T15:11:24.730Z,14.09
2022-09-20T15:16:25.908Z,14.00
2022-09-20T15:21:26.050Z,13.75
2022-09-20T15:26:26.734Z,13.51
2022-09-20T15:31:27.468Z,13.05
2022-09-20T15:36:28.092Z,12.71
2022-09-20T15:41:31.323Z,12.54
2022-09-20T15:46:29.651Z,12.53
2022-09-20T15:51:30.406Z,12.60
2022-09-20T15:56:31.061Z,12.59
2022-09-20T16:01:31.708Z,12.62
2022-09-20T16:06:32.373Z,12.68
2022-09-20T16:11:33.040Z,12.77
2022-09-20T16:16:38.881Z,12.83
2022-09-20T16:21:35.221Z,12.85
2022-09-20T16:26:34.891Z,12.83
2022-09-20T16:31:35.965Z,12.74
2022-09-20T16:36:36.106Z,12.70
2022-09-20T16:41:36.804Z,12.62
2022-09-20T16:46:37.561Z,12.59
2022-09-20T16:51:38.217Z,12.59
2022-09-20T16:56:38.866Z,12.54
2022-09-20T17:01:39.611Z,12.46
2022-09-20T17:06:40.374Z,12.47
2022-09-20T17:11:40.966Z,12.49
2022-09-20T17:16:41.729Z,12.49
2022-09-20T17:21:42.417Z,12.46
2022-09-20T17:26:43.098Z,12.42
2022-09-20T17:31:43.826Z,12.37
2022-09-20T17:36:44.525Z,12.29
2022-09-20T17:41:45.160Z,12.20
2022-09-20T17:46:45.945Z,12.12
2022-09-20T17:51:46.620Z,12.04
2022-09-20T17:56:47.317Z,11.99
2022-09-20T18:01:48.071Z,11.94
2022-09-20T18:06:48.843Z,11.80
2022-09-20T18:11:49.571Z,11.80
2022-09-20T18:16:50.322Z,11.72
2022-09-20T18:21:51.027Z,11.64
2022-09-20T18:26:51.815Z,11.54
2022-09-20T18:31:52.603Z,11.43
2022-09-20T18:36:53.364Z,11.36
2022-09-20T18:41:54.071Z,11.28
2022-09-20T18:46:55.164Z,11.25
2022-09-20T18:51:56.841Z,11.18
2022-09-20T18:56:56.413Z,11.10
2022-09-20T19:01:57.052Z,11.03
2022-09-20T19:06:57.553Z,11.03
2022-09-20T19:11:58.180Z,10.99
2022-09-20T19:16:58.724Z,10.94
2022-09-20T19:21:59.139Z,10.91
2022-09-20T19:27:00.158Z,10.88
2022-09-20T19:32:00.835Z,10.84
2022-09-20T19:37:01.239Z,10.81
2022-09-20T19:42:01.996Z,10.74
2022-09-20T19:47:02.826Z,10.70
2022-09-20T19:52:03.589Z,10.64
2022-09-20T19:57:04.321Z,10.64
2022-09-20T20:02:05.086Z,10.60
2022-09-20T20:07:05.865Z,10.55
2022-09-20T20:12:06.686Z,10.47
2022-09-20T20:17:07.346Z,10.45
2022-09-20T20:22:08.086Z,10.42
2022-09-20T20:27:09.024Z,10.40
2022-09-20T20:32:09.326Z,10.40
2022-09-20T20:37:10.072Z,10.38
2022-09-20T20:42:10.827Z,10.40
2022-09-20T20:47:11.704Z,10.36
2022-09-20T20:52:12.423Z,10.25
2022-09-20T20:57:13.164Z,10.20
2022-09-20T21:02:13.896Z,10.18
2022-09-20T21:07:14.683Z,10.18
2022-09-20T21:12:15.404Z,10.17
2022-09-20T21:17:16.137Z,10.17
2022-09-20T21:22:16.891Z,10.11
2022-09-20T21:27:17.602Z,10.05
2022-09-20T21:32:18.345Z,10.01
2022-09-20T21:37:19.171Z,9.97
2022-09-20T21:42:19.829Z,9.93
2022-09-20T21:47:20.574Z,9.96
2022-09-20T21:52:21.311Z,9.96
2022-09-20T21:57:29.119Z,9.97
2022-09-20T22:02:22.971Z,9.94
2022-09-20T22:07:23.849Z,9.90
2022-09-20T22:12:24.711Z,9.89
2022-09-20T22:17:25.473Z,9.89
2022-09-20T22:22:26.328Z,9.86
2022-09-20T22:27:27.231Z,9.79
2022-09-20T22:32:27.977Z,9.76
2022-09-20T22:37:28.855Z,9.75
2022-09-20T22:42:29.693Z,9.72
2022-09-20T22:47:30.404Z,9.68
2022-09-20T22:52:31.160Z,9.66
2022-09-20T22:57:31.989Z,9.61
2022-09-20T23:02:32.695Z,9.54
2022-09-20T23:07:33.436Z,9.43
2022-09-20T23:12:34.193Z,9.40
2022-09-20T23:17:34.941Z,9.46
2022-09-20T23:22:35.671Z,9.47
2022-09-20T23:27:36.394Z,9.40
2022-09-20T23:32:37.166Z,9.42
2022-09-20T23:37:37.920Z,9.42
2022-09-20T23:42:38.638Z,9.40
2022-09-20T23:47:39.353Z,9.43
2022-09-20T23:52:40.134Z,9.40
2022-09-20T23:57:40.883Z,9.43
